Time;durP1;ratioP1;P1;durP2;ratioP2;P2;SDS_P1;SDS_P2;PMS_P1;PMS_P2;Temp;Humidity;BMP_temperature;BMP_pressure;BME280_temperature;BME280_humidity;BME280_pressure;Samples;Min_cycle;Max_cycle;Signal;HPM_P1;HPM_P2
2022/02/16 00:01:44;;;;;;;;;1.75;1.00;;;;;10.70;64.23;100517.94;5045668;28;45221;-51
2022/02/16 00:04:09;;;;;;;;;1.50;1.00;;;;;10.75;64.19;100507.34;5047202;28;46000;-49
2022/02/16 00:06:35;;;;;;;;;1.25;1.00;;;;;10.74;64.22;100516.97;5052495;28;45156;-50
2022/02/16 00:09:00;;;;;;;;;0.50;0.50;;;;;10.77;63.94;100513.44;5051061;28;45193;-48
2022/02/16 00:11:26;;;;;;;;;2.00;2.00;;;;;10.73;64.48;100497.72;5040504;28;45387;-48
2022/02/16 00:13:51;;;;;;;;;0.50;0.50;;;;;10.70;64.37;100489.91;5049574;28;47017;-48
2022/02/16 00:16:17;;;;;;;;;2.00;1.00;;;;;10.68;64.60;100517.13;5047431;28;45485;-48
2022/02/16 00:18:42;;;;;;;;;1.75;1.50;;;;;10.71;64.42;100491.63;5050821;28;45402;-47
2022/02/16 00:21:08;;;;;;;;;0.50;0.50;;;;;10.68;64.69;100475.06;5055824;28;45346;-49
2022/02/16 00:23:33;;;;;;;;;1.00;1.00;;;;;10.65;64.49;100489.09;5054490;28;45394;-52
2022/02/16 00:26:02;;;;;;;;;0.00;0.00;;;;;10.68;64.50;100470.66;5048687;28;45313;-48
2022/02/16 00:28:28;;;;;;;;;2.50;1.00;;;;;10.66;64.52;100471.59;5049817;28;45292;-51
2022/02/16 00:30:53;;;;;;;;;3.00;1.00;;;;;10.69;64.02;100454.00;5044345;28;45546;-47
2022/02/16 00:33:18;;;;;;;;;2.00;2.00;;;;;10.68;64.54;100467.19;5052237;28;45633;-51
2022/02/16 00:35:44;;;;;;;;;2.00;1.00;;;;;10.64;64.40;100450.59;5052707;28;45255;-48
2022/02/16 00:38:09;;;;;;;;;1.00;1.00;;;;;10.69;64.39;100440.88;5042518;28;45196;-49
2022/02/16 00:40:34;;;;;;;;;2.00;1.00;;;;;10.67;64.30;100447.91;5055406;28;45416;-49
2022/02/16 00:43:00;;;;;;;;;0.00;0.00;;;;;10.72;64.13;100442.56;5052351;28;45781;-50
2022/02/16 00:45:26;;;;;;;;;1.75;1.00;;;;;10.70;64.32;100450.50;5048217;28;45314;-47
2022/02/16 00:47:51;;;;;;;;;1.00;1.00;;;;;10.71;64.59;100435.56;5050808;28;45227;-52
2022/02/16 00:50:17;;;;;;;;;1.00;0.75;;;;;10.70;64.48;100432.09;5055238;28;45398;-49
2022/02/16 00:52:42;;;;;;;;;0.75;0.75;;;;;10.71;64.50;100436.44;5052385;28;45381;-46
2022/02/16 00:55:08;;;;;;;;;1.00;1.00;;;;;10.70;64.47;100426.84;5047005;28;45706;-48
2022/02/16 00:57:34;;;;;;;;;1.00;1.00;;;;;10.70;64.37;100421.59;5051840;28;45299;-51
2022/02/16 00:59:59;;;;;;;;;1.00;1.00;;;;;10.68;64.67;100436.50;5054985;28;45469;-49
2022/02/16 01:02:26;;;;;;;;;1.00;1.00;;;;;10.65;64.11;100425.19;5052293;28;45330;-51
2022/02/16 01:04:51;;;;;;;;;0.00;0.00;;;;;10.68;64.84;100412.00;5048305;28;45264;-50
2022/02/16 01:07:17;;;;;;;;;0.00;0.00;;;;;10.67;64.86;100394.50;5051327;28;45454;-49
2022/02/16 01:09:43;;;;;;;;;1.50;1.00;;;;;10.67;64.87;100412.88;5054702;28;45307;-49
2022/02/16 01:12:08;;;;;;;;;1.00;1.00;;;;;10.71;64.73;100417.19;5041569;28;45216;-49
2022/02/16 01:14:34;;;;;;;;;1.00;1.00;;;;;10.63;64.86;100390.16;5053573;28;45751;-50
2022/02/16 01:16:59;;;;;;;;;2.00;1.00;;;;;10.65;65.04;100386.63;5041882;28;45236;-49
2022/02/16 01:19:25;;;;;;;;;1.00;1.00;;;;;10.66;65.20;100382.25;5054807;28;45301;-47
2022/02/16 01:21:50;;;;;;;;;1.00;1.00;;;;;10.66;64.97;100396.25;5051052;28;46094;-50
2022/02/16 01:24:15;;;;;;;;;1.00;1.00;;;;;10.68;64.83;100388.34;5047827;27;45219;-50
2022/02/16 01:26:41;;;;;;;;;2.00;1.00;;;;;10.64;64.93;100373.53;5050798;28;45158;-49
2022/02/16 01:29:06;;;;;;;;;1.00;1.00;;;;;10.65;65.07;100381.38;5042662;28;45347;-47
2022/02/16 01:31:31;;;;;;;;;0.50;0.50;;;;;10.66;64.98;100377.84;5050462;28;46247;-48
2022/02/16 01:33:57;;;;;;;;;1.00;1.00;;;;;10.65;65.14;100378.72;5047950;28;45495;-47
2022/02/16 01:36:22;;;;;;;;;0.00;0.00;;;;;10.67;65.08;100378.72;5047026;28;45310;-49
2022/02/16 01:38:47;;;;;;;;;3.00;2.00;;;;;10.64;65.36;100357.75;5039134;28;45329;-51
2022/02/16 01:41:15;;;;;;;;;0.75;0.75;;;;;10.63;65.12;100350.75;5052141;28;45379;-50
2022/02/16 01:43:52;;;;;;;;;1.00;1.00;;;;;10.60;65.26;100345.56;5053006;28;45409;-49
2022/02/16 01:46:18;;;;;;;;;2.25;1.25;;;;;10.60;65.32;100362.19;5052121;28;45246;-52
2022/02/16 01:48:44;;;;;;;;;1.00;1.00;;;;;10.59;65.39;100349.97;5047615;28;45429;-50
2022/02/16 01:51:11;;;;;;;;;1.75;0.50;;;;;10.61;65.25;100345.53;5049799;28;46594;-50
2022/02/16 01:53:36;;;;;;;;;2.00;2.00;;;;;10.56;65.60;100326.38;5054474;28;45359;-47
2022/02/16 01:56:02;;;;;;;;;1.25;1.00;;;;;10.60;65.41;100333.28;5051138;28;45534;-49
2022/02/16 01:58:28;;;;;;;;;1.00;1.00;;;;;10.60;65.52;100330.66;5047083;28;45448;-49
2022/02/16 02:00:55;;;;;;;;;1.00;1.00;;;;;10.63;65.60;100324.47;5049341;28;45421;-49
2022/02/16 02:03:20;;;;;;;;;1.25;1.25;;;;;10.61;65.18;100318.41;5054155;28;45401;-47
2022/02/16 02:05:50;;;;;;;;;1.00;1.00;;;;;10.64;65.42;100303.44;5051443;28;45267;-49
2022/02/16 02:08:16;;;;;;;;;1.75;0.75;;;;;10.67;65.23;100311.25;5047122;28;46305;-49
2022/02/16 02:10:41;;;;;;;;;2.50;1.25;;;;;10.67;65.22;100300.75;5047837;28;46198;-47
2022/02/16 02:13:07;;;;;;;;;0.25;0.25;;;;;10.64;65.59;100297.31;5045082;28;45424;-49
2022/02/16 02:15:32;;;;;;;;;0.00;0.00;;;;;10.66;65.35;100298.16;5048468;28;45319;-51
2022/02/16 02:17:59;;;;;;;;;1.00;1.00;;;;;10.65;65.51;100304.31;5053914;28;45572;-52
2022/02/16 02:20:27;;;;;;;;;1.00;1.00;;;;;10.68;65.53;100291.13;5053570;28;46157;-49
2022/02/16 02:22:53;;;;;;;;;1.00;0.00;;;;;10.69;65.48;100296.34;5040509;28;45208;-52
2022/02/16 02:25:19;;;;;;;;;1.00;1.00;;;;;10.68;65.54;100291.97;5039352;28;45351;-49
2022/02/16 02:27:44;;;;;;;;;0.50;0.50;;;;;10.70;65.29;100290.19;5053570;28;45211;-51
2022/02/16 02:30:11;;;;;;;;;0.75;0.75;;;;;10.68;65.49;100272.72;5039993;28;45933;-52
2022/02/16 02:32:40;;;;;;;;;0.50;0.00;;;;;10.66;65.69;100262.22;5052426;28;45924;-48
2022/02/16 02:35:06;;;;;;;;;1.00;1.00;;;;;10.63;65.58;100262.31;5040461;28;45389;-51
2022/02/16 02:37:36;;;;;;;;;0.00;0.00;;;;;10.68;65.60;100270.94;5038375;28;45992;-49
2022/02/16 02:40:02;;;;;;;;;1.75;1.00;;;;;10.66;65.75;100262.22;5039447;28;46327;-50
2022/02/16 02:42:27;;;;;;;;;0.50;0.50;;;;;10.69;65.94;100262.16;5053470;28;45401;-50
2022/02/16 02:44:52;;;;;;;;;1.00;1.00;;;;;10.65;65.85;100249.97;5051239;28;45504;-50
2022/02/16 02:47:18;;;;;;;;;1.50;1.25;;;;;10.66;65.94;100256.13;5045457;28;45622;-48
2022/02/16 02:49:44;;;;;;;;;1.25;1.25;;;;;10.66;65.95;100246.44;5046246;28;47257;-46
2022/02/16 02:52:10;;;;;;;;;0.00;0.00;;;;;10.67;66.13;100236.81;5046018;28;45348;-49
2022/02/16 02:54:36;;;;;;;;;1.25;1.25;;;;;10.69;66.01;100246.41;5047129;28;45319;-46
2022/02/16 02:57:01;;;;;;;;;0.50;0.25;;;;;10.71;65.98;100226.19;5053415;28;45486;-49
2022/02/16 02:59:27;;;;;;;;;0.25;0.25;;;;;10.75;65.87;100228.75;5051437;28;48022;-49
2022/02/16 03:01:52;;;;;;;;;0.25;0.25;;;;;10.71;65.78;100226.19;5046732;28;45251;-49
2022/02/16 03:04:18;;;;;;;;;0.25;0.25;;;;;10.72;65.97;100213.94;5047361;28;45277;-50
2022/02/16 03:06:43;;;;;;;;;0.00;0.00;;;;;10.73;66.11;100216.50;5053164;28;45257;-52
2022/02/16 03:09:08;;;;;;;;;1.00;1.00;;;;;10.75;66.03;100213.00;5039756;28;45281;-47
2022/02/16 03:11:34;;;;;;;;;0.00;0.00;;;;;10.71;66.06;100199.91;5042706;28;45287;-49
2022/02/16 03:13:59;;;;;;;;;0.25;0.25;;;;;10.73;66.22;100200.75;5053099;28;45219;-51
2022/02/16 03:16:24;;;;;;;;;1.00;1.00;;;;;10.72;66.19;100191.13;5046327;28;45356;-46
2022/02/16 03:18:50;;;;;;;;;0.25;0.25;;;;;10.76;66.24;100201.59;5046660;28;45940;-48
2022/02/16 03:21:15;;;;;;;;;0.00;0.00;;;;;10.77;66.23;100191.03;5051856;28;45327;-50
2022/02/16 03:23:40;;;;;;;;;0.00;0.00;;;;;10.80;66.13;100187.47;5040017;28;45492;-48
2022/02/16 03:26:06;;;;;;;;;0.00;0.00;;;;;10.78;66.23;100173.47;5052897;28;45313;-49
2022/02/16 03:28:31;;;;;;;;;0.00;0.00;;;;;10.77;66.34;100177.00;5041591;28;46063;-47
2022/02/16 03:30:57;;;;;;;;;0.00;0.00;;;;;10.77;66.09;100167.38;5043763;28;45564;-48
2022/02/16 03:33:22;;;;;;;;;0.00;0.00;;;;;10.82;66.28;100176.00;5048984;28;45441;-49
2022/02/16 03:35:47;;;;;;;;;0.50;0.50;;;;;10.81;66.31;100186.56;5051328;28;45299;-50
2022/02/16 03:38:13;;;;;;;;;1.00;0.00;;;;;10.80;66.64;100161.19;5039577;28;45384;-47
2022/02/16 03:40:38;;;;;;;;;1.25;1.00;;;;;10.81;66.53;100161.13;5051492;28;45747;-46
2022/02/16 03:43:04;;;;;;;;;0.25;0.25;;;;;10.82;66.53;100154.97;5039380;28;45477;-50
2022/02/16 03:45:30;;;;;;;;;0.75;0.75;;;;;10.82;66.58;100159.38;5052861;28;45301;-50
2022/02/16 03:47:55;;;;;;;;;1.00;1.00;;;;;10.83;66.37;100155.84;5050227;28;46135;-51
2022/02/16 03:50:22;;;;;;;;;0.00;0.00;;;;;10.89;66.46;100153.06;5046340;28;45343;-51
2022/02/16 03:52:49;;;;;;;;;1.00;0.00;;;;;10.93;66.36;100156.47;5052351;28;45501;-46
2022/02/16 03:55:15;;;;;;;;;1.50;1.00;;;;;10.89;66.37;100153.94;5055992;28;45263;-50
2022/02/16 03:57:40;;;;;;;;;0.00;0.00;;;;;10.88;66.50;100131.19;5054185;28;45844;-52
2022/02/16 04:00:08;;;;;;;;;1.75;0.75;;;;;10.91;66.33;100140.75;5049136;28;45256;-52
2022/02/16 04:02:33;;;;;;;;;0.00;0.00;;;;;10.90;66.63;100141.63;5051249;28;45290;-50
2022/02/16 04:04:58;;;;;;;;;0.00;0.00;;;;;10.94;66.45;100134.53;5056160;28;45322;-47
2022/02/16 04:07:24;;;;;;;;;0.00;0.00;;;;;10.94;66.58;100140.66;5054591;28;45343;-50
2022/02/16 04:09:49;;;;;;;;;1.00;0.50;;;;;10.96;66.77;100143.28;5046709;28;45338;-47
2022/02/16 04:12:15;;;;;;;;;0.00;0.00;;;;;10.90;66.60;100139.00;5042912;28;45295;-48
2022/02/16 04:14:40;;;;;;;;;0.00;0.00;;;;;10.95;66.84;100141.53;5055815;28;45414;-49
2022/02/16 04:17:06;;;;;;;;;0.00;0.00;;;;;10.96;66.69;100130.97;5054655;28;45453;-48
2022/02/16 04:19:31;;;;;;;;;0.50;0.50;;;;;11.01;66.55;100131.72;5049007;28;45409;-47
2022/02/16 04:21:56;;;;;;;;;0.00;0.00;;;;;11.02;66.52;100124.72;5050784;28;45398;-50
2022/02/16 04:24:22;;;;;;;;;0.75;0.00;;;;;11.03;66.73;100129.03;5055784;28;45290;-50
2022/02/16 04:26:48;;;;;;;;;0.00;0.00;;;;;11.03;66.85;100108.00;5042295;28;47052;-51
2022/02/16 04:29:13;;;;;;;;;0.00;0.00;;;;;11.05;66.79;100122.84;5042044;28;45367;-51
2022/02/16 04:31:38;;;;;;;;;0.00;0.00;;;;;11.09;66.54;100134.13;5052406;28;45298;-49
2022/02/16 04:34:04;;;;;;;;;1.00;0.00;;;;;11.07;66.90;100130.72;5048987;28;45231;-48
2022/02/16 04:36:29;;;;;;;;;0.00;0.00;;;;;11.05;66.71;100114.09;5051167;28;45216;-48
2022/02/16 04:38:56;;;;;;;;;0.00;0.00;;;;;11.11;66.79;100129.72;5041957;28;45271;-47
2022/02/16 04:41:22;;;;;;;;;0.00;0.00;;;;;11.12;66.67;100130.56;5042506;28;45310;-51
2022/02/16 04:43:48;;;;;;;;;0.00;0.00;;;;;11.14;66.46;100113.00;5055013;28;45511;-50
2022/02/16 04:46:13;;;;;;;;;1.00;0.75;;;;;11.15;66.49;100112.09;5042094;28;46941;-50
2022/02/16 04:48:39;;;;;;;;;0.00;0.00;;;;;11.17;66.74;100108.53;5045055;28;45502;-51
2022/02/16 04:51:05;;;;;;;;;0.00;0.00;;;;;11.18;66.86;100101.47;5052288;28;45438;-47
2022/02/16 04:53:33;;;;;;;;;0.00;0.00;;;;;11.19;66.69;100101.47;5055467;28;45398;-49
2022/02/16 04:55:59;;;;;;;;;0.00;0.00;;;;;11.21;66.81;100101.41;5052522;28;46094;-52
2022/02/16 04:58:24;;;;;;;;;0.25;0.00;;;;;11.21;67.06;100090.91;5048373;28;45504;-50
2022/02/16 05:00:50;;;;;;;;;0.00;0.00;;;;;11.21;66.76;100090.91;5049495;28;45414;-51
2022/02/16 05:03:15;;;;;;;;;0.00;0.00;;;;;11.23;67.13;100102.22;5045922;28;45472;-48
2022/02/16 05:05:40;;;;;;;;;0.00;0.00;;;;;11.28;66.70;100081.94;5050798;28;46103;-51
2022/02/16 05:08:06;;;;;;;;;5.00;4.25;;;;;11.27;67.16;100097.75;5054046;28;45454;-49
2022/02/16 05:10:31;;;;;;;;;0.00;0.00;;;;;11.27;67.42;100076.69;5044813;28;45651;-52
2022/02/16 05:12:57;;;;;;;;;0.00;0.00;;;;;11.34;67.00;100081.75;5045808;28;45552;-51
2022/02/16 05:15:22;;;;;;;;;0.00;0.00;;;;;11.34;67.12;100086.16;5051132;28;45504;-48
2022/02/16 05:17:47;;;;;;;;;1.50;0.00;;;;;11.37;66.97;100091.31;5055060;28;45387;-52
2022/02/16 05:20:13;;;;;;;;;0.00;0.00;;;;;11.38;66.96;100079.91;5052826;28;45303;-50
2022/02/16 05:22:38;;;;;;;;;0.00;0.00;;;;;11.43;67.00;100090.28;5048192;28;45300;-51
2022/02/16 05:25:04;;;;;;;;;0.00;0.00;;;;;11.45;67.06;100089.34;5049441;28;45354;-51
2022/02/16 05:27:29;;;;;;;;;0.00;0.00;;;;;11.48;67.02;100085.75;5054727;28;45373;-49
2022/02/16 05:29:55;;;;;;;;;0.00;0.00;;;;;11.50;67.15;100084.81;5041430;28;45303;-51
2022/02/16 05:32:20;;;;;;;;;0.00;0.00;;;;;11.48;66.68;100080.50;5053451;28;45651;-50
2022/02/16 05:34:46;;;;;;;;;0.00;0.00;;;;;11.54;66.94;100091.72;5041253;28;46085;-47
2022/02/16 05:37:11;;;;;;;;;0.00;0.00;;;;;11.57;67.13;100098.66;5040175;28;45287;-50
2022/02/16 05:39:37;;;;;;;;;0.00;0.00;;;;;11.58;67.10;100105.63;5048930;28;45454;-46
2022/02/16 05:42:03;;;;;;;;;0.00;0.00;;;;;11.56;67.18;100091.69;5047699;28;45410;-48
2022/02/16 05:44:29;;;;;;;;;0.00;0.00;;;;;11.60;67.16;100093.31;5052115;28;46241;-50
2022/02/16 05:46:54;;;;;;;;;0.00;0.00;;;;;11.64;67.07;100100.19;5054467;28;45254;-50
2022/02/16 05:49:20;;;;;;;;;0.00;0.00;;;;;11.65;67.25;100086.16;5050011;28;45712;-50
2022/02/16 05:51:45;;;;;;;;;0.00;0.00;;;;;11.66;67.50;100102.78;5044268;28;45418;-51
2022/02/16 05:54:11;;;;;;;;;0.25;0.00;;;;;11.69;67.41;100095.66;5049910;28;46269;-49
2022/02/16 05:56:36;;;;;;;;;1.00;0.00;;;;;11.72;67.10;100105.25;5045425;28;45430;-50
2022/02/16 05:59:02;;;;;;;;;0.00;0.00;;;;;11.75;67.31;100096.38;5041068;28;45480;-50
2022/02/16 06:01:28;;;;;;;;;0.00;0.00;;;;;11.79;67.16;100109.44;5040744;28;45389;-47
2022/02/16 06:03:53;;;;;;;;;0.00;0.00;;;;;11.79;67.29;100114.69;5040937;28;46266;-50
2022/02/16 06:06:18;;;;;;;;;0.00;0.00;;;;;11.80;67.80;100115.56;5052871;28;45322;-50
2022/02/16 06:08:45;;;;;;;;;0.00;0.00;;;;;11.83;67.40;100108.41;5049772;28;45585;-47
2022/02/16 06:11:10;;;;;;;;;0.50;0.00;;;;;11.83;67.42;100120.75;5045149;28;45290;-52
2022/02/16 06:13:36;;;;;;;;;0.00;0.00;;;;;11.87;67.48;100106.56;5048023;28;46139;-51
2022/02/16 06:16:02;;;;;;;;;0.75;0.75;;;;;11.91;67.57;100116.13;5047394;28;45370;-47
2022/02/16 06:18:28;;;;;;;;;1.00;1.00;;;;;11.94;67.71;100134.44;5050813;28;45193;-51
2022/02/16 06:20:55;;;;;;;;;0.00;0.00;;;;;11.94;67.67;100123.06;5040632;28;45176;-48
2022/02/16 06:23:20;;;;;;;;;0.00;0.00;;;;;11.98;67.32;100116.81;5040571;28;46341;-49
2022/02/16 06:25:45;;;;;;;;;0.00;0.00;;;;;11.96;67.29;100122.16;5053901;28;45215;-49
2022/02/16 06:28:11;;;;;;;;;2.00;0.00;;;;;12.03;67.61;100128.06;5039091;28;45359;-52
2022/02/16 06:30:36;;;;;;;;;0.00;0.00;;;;;12.05;67.61;100125.38;5034941;28;45464;-52
2022/02/16 06:33:02;;;;;;;;;0.00;0.00;;;;;12.08;67.39;100112.16;5039191;28;45922;-52
2022/02/16 06:35:27;;;;;;;;;1.00;0.00;;;;;12.12;67.56;100117.25;5040556;28;45495;-52
2022/02/16 06:37:53;;;;;;;;;0.00;0.00;;;;;12.14;67.44;100120.72;5040644;28;45541;-51
2022/02/16 06:40:18;;;;;;;;;0.00;0.00;;;;;12.17;67.61;100127.66;5040213;28;45410;-52
2022/02/16 06:42:43;;;;;;;;;0.50;0.50;;;;;12.21;67.63;100131.91;5040260;28;45311;-50
2022/02/16 06:45:10;;;;;;;;;0.00;0.00;;;;;12.23;67.53;100127.47;5040046;28;45315;-52
2022/02/16 06:47:36;;;;;;;;;0.50;0.50;;;;;12.25;67.36;100128.31;5040478;28;45387;-49
2022/02/16 06:50:03;;;;;;;;;1.00;1.00;;;;;12.27;67.20;100151.94;5040005;28;45457;-52
2022/02/16 06:52:28;;;;;;;;;0.00;0.00;;;;;12.30;67.44;100125.50;5038896;28;46728;-50
2022/02/16 06:54:54;;;;;;;;;0.00;0.00;;;;;12.34;67.72;100127.16;5039818;28;45232;-50
2022/02/16 06:57:19;;;;;;;;;0.00;0.00;;;;;12.37;67.79;100140.22;5040472;28;45243;-49
2022/02/16 06:59:44;;;;;;;;;0.00;0.00;;;;;12.40;67.59;100147.16;5039831;28;45434;-50
2022/02/16 07:02:10;;;;;;;;;0.00;0.00;;;;;12.41;67.87;100146.25;5040090;28;45474;-51
2022/02/16 07:04:36;;;;;;;;;0.00;0.00;;;;;12.41;67.73;100147.09;5039846;28;45242;-51
2022/02/16 07:07:01;;;;;;;;;1.00;0.00;;;;;12.44;67.72;100154.06;5040276;28;45252;-50
2022/02/16 07:09:27;;;;;;;;;0.00;0.00;;;;;12.49;67.45;100168.81;5039630;28;45451;-51
2022/02/16 07:11:52;;;;;;;;;0.00;0.00;;;;;12.50;67.86;100162.66;5039758;28;45247;-50
2022/02/16 07:14:20;;;;;;;;;0.00;0.00;;;;;12.53;67.96;100159.06;5039537;28;45299;-52
2022/02/16 07:16:45;;;;;;;;;0.00;0.00;;;;;12.55;67.62;100169.53;5040361;28;45277;-51
2022/02/16 07:19:10;;;;;;;;;0.00;0.00;;;;;12.57;67.54;100168.56;5039624;28;45505;-51
2022/02/16 07:21:36;;;;;;;;;0.00;0.00;;;;;12.55;68.15;100177.44;5040027;28;46450;-50
2022/02/16 07:24:01;;;;;;;;;0.00;0.00;;;;;12.56;67.92;100164.22;5039548;28;45310;-50
2022/02/16 07:26:27;;;;;;;;;0.00;0.00;;;;;12.57;67.81;100157.19;5043483;28;45331;-51
2022/02/16 07:28:52;;;;;;;;;0.00;0.00;;;;;12.59;67.70;100150.06;5042852;28;45635;-49
2022/02/16 07:31:18;;;;;;;;;0.00;0.00;;;;;12.61;66.78;100151.75;5043370;28;47323;-49
2022/02/16 07:33:43;;;;;;;;;0.00;0.00;;;;;12.68;67.59;100161.19;5043171;28;45270;-50
2022/02/16 07:36:08;;;;;;;;;0.25;0.25;;;;;12.73;67.59;100149.63;5043242;28;45478;-49
2022/02/16 07:38:34;;;;;;;;;0.00;0.00;;;;;12.74;67.14;100132.91;5041971;28;45606;-49
2022/02/16 07:41:00;;;;;;;;;0.00;0.00;;;;;12.76;67.67;100149.53;5042941;28;45379;-51
2022/02/16 07:43:26;;;;;;;;;0.00;0.00;;;;;12.79;67.83;100142.41;5041418;28;45697;-51
2022/02/16 07:45:52;;;;;;;;;3.25;3.25;;;;;12.79;67.71;100137.13;5043149;28;45295;-52
2022/02/16 07:48:18;;;;;;;;;0.00;0.00;;;;;12.83;67.97;100146.66;5041555;28;45455;-52
2022/02/16 07:50:43;;;;;;;;;0.00;0.00;;;;;12.84;67.54;100150.13;5042889;28;45327;-51
2022/02/16 07:53:12;;;;;;;;;0.25;0.25;;;;;12.86;67.27;100161.50;5043043;28;45387;-46
2022/02/16 07:55:38;;;;;;;;;0.00;0.00;;;;;12.88;67.30;100149.16;5042816;28;45319;-50
2022/02/16 07:58:04;;;;;;;;;0.33;0.33;;;;;12.87;67.58;100162.34;5042563;28;45334;-47
2022/02/16 08:00:30;;;;;;;;;3.00;0.50;;;;;12.93;67.80;100167.44;5042571;28;45371;-46
2022/02/16 08:02:56;;;;;;;;;0.00;0.00;;;;;12.89;67.01;100161.38;5042789;28;45252;-46
2022/02/16 08:05:21;;;;;;;;;0.50;0.50;;;;;12.96;66.90;100189.28;5041600;28;45161;-49
2022/02/16 08:07:47;;;;;;;;;1.00;1.00;;;;;12.95;67.62;100169.09;5042725;28;45285;-47
2022/02/16 08:10:12;;;;;;;;;0.75;0.75;;;;;13.00;67.60;100161.03;5042238;28;45254;-46
2022/02/16 08:12:50;;;;;;;;;0.00;0.00;;;;;12.99;67.34;100154.94;5042556;28;45643;-49
2022/02/16 08:15:16;;;;;;;;;1.00;1.00;;;;;13.04;67.71;100153.91;5042704;28;45362;-46
2022/02/16 08:17:42;;;;;;;;;2.00;0.25;;;;;13.08;67.52;100147.59;5040891;28;45366;-46
2022/02/16 08:20:08;;;;;;;;;0.00;0.00;;;;;13.12;67.55;100163.28;5042385;28;45327;-48
2022/02/16 08:22:34;;;;;;;;;2.50;2.50;;;;;13.11;67.82;100158.91;5042391;28;45248;-47
2022/02/16 08:25:00;;;;;;;;;0.50;0.50;;;;;13.17;67.74;100171.03;5042459;28;45283;-46
2022/02/16 08:27:25;;;;;;;;;0.00;0.00;;;;;13.19;67.38;100169.19;5042136;28;45273;-46
2022/02/16 08:29:51;;;;;;;;;0.25;0.25;;;;;13.17;67.31;100181.59;5042171;28;45240;-49
2022/02/16 08:32:16;;;;;;;;;0.75;0.75;;;;;13.22;67.80;100190.22;5042170;28;45247;-45
2022/02/16 08:34:42;;;;;;;;;1.75;0.75;;;;;13.23;67.19;100193.69;5041264;28;45367;-44
2022/02/16 08:37:07;;;;;;;;;0.50;0.00;;;;;13.25;67.72;100190.09;5041005;28;45552;-48
2022/02/16 08:39:33;;;;;;;;;1.00;0.00;;;;;13.28;67.69;100182.09;5040574;28;45415;-45
2022/02/16 08:41:58;;;;;;;;;2.25;0.00;;;;;13.27;67.88;100187.41;5040799;28;45324;-46
2022/02/16 08:44:24;;;;;;;;;1.00;1.00;;;;;13.28;67.49;100186.50;5041957;28;45418;-46
2022/02/16 08:46:50;;;;;;;;;0.00;0.00;;;;;13.29;67.24;100175.88;5040566;28;45381;-48
2022/02/16 08:49:16;;;;;;;;;0.00;0.00;;;;;13.33;67.35;100182.78;5042120;28;46361;-47
2022/02/16 08:51:41;;;;;;;;;0.25;0.25;;;;;13.31;67.64;100181.13;5041658;28;45282;-46
2022/02/16 08:54:07;;;;;;;;;1.00;1.00;;;;;13.33;67.97;100174.88;5042117;28;45322;-47
2022/02/16 08:56:32;;;;;;;;;0.00;0.00;;;;;13.36;67.85;100176.53;5041632;28;45496;-48
2022/02/16 08:59:00;;;;;;;;;1.00;1.00;;;;;13.38;67.57;100192.34;5041494;28;45962;-45
2022/02/16 09:01:31;;;;;;;;;4.00;1.00;;;;;13.37;66.93;100178.31;5041496;28;45242;-47
2022/02/16 09:03:56;;;;;;;;;3.00;0.50;;;;;13.42;67.61;100183.41;5041876;28;45409;-46
2022/02/16 09:06:22;;;;;;;;;1.00;1.00;;;;;13.42;67.33;100191.31;5040135;28;45662;-51
2022/02/16 09:08:47;;;;;;;;;3.00;1.75;;;;;13.45;67.19;100202.63;5041297;28;45932;-47
2022/02/16 09:11:13;;;;;;;;;1.00;1.00;;;;;13.47;67.28;100198.19;5041386;28;45225;-49
2022/02/16 09:13:38;;;;;;;;;1.00;1.00;;;;;13.49;67.07;100206.03;5041688;28;45299;-46
2022/02/16 09:16:04;;;;;;;;;2.00;2.00;;;;;13.50;67.88;100199.84;5040167;28;45475;-48
2022/02/16 09:18:29;;;;;;;;;1.00;1.00;;;;;13.47;67.58;100192.03;5041657;28;45418;-46
2022/02/16 09:20:54;;;;;;;;;1.00;1.00;;;;;13.55;67.74;100200.53;5041477;28;45252;-51
2022/02/16 09:23:20;;;;;;;;;0.25;0.25;;;;;13.56;67.15;100199.63;5040330;27;45307;-49
2022/02/16 09:25:45;;;;;;;;;2.75;0.00;;;;;13.62;67.30;100201.19;5041281;28;45215;-48
2022/02/16 09:28:12;;;;;;;;;0.00;0.00;;;;;13.67;66.80;100212.44;5039702;28;48212;-47
2022/02/16 09:30:37;;;;;;;;;1.50;1.00;;;;;13.67;67.26;100212.44;5041239;28;45264;-46
2022/02/16 09:33:03;;;;;;;;;0.00;0.00;;;;;13.68;67.60;100214.16;5041394;28;45276;-49
2022/02/16 09:35:29;;;;;;;;;0.00;0.00;;;;;13.74;67.44;100224.50;5040123;28;45337;-48
2022/02/16 09:37:54;;;;;;;;;0.00;0.00;;;;;13.76;67.14;100229.72;5041197;28;45313;-51
2022/02/16 09:40:20;;;;;;;;;1.00;1.00;;;;;13.79;67.41;100219.94;5039814;28;45390;-49
2022/02/16 09:42:45;;;;;;;;;0.00;0.00;;;;;13.81;67.22;100210.19;5041324;28;45371;-46
2022/02/16 09:45:14;;;;;;;;;0.67;0.00;;;;;13.86;66.97;100211.78;5040898;28;45330;-46
2022/02/16 09:47:42;;;;;;;;;2.00;1.00;;;;;13.90;67.43;100237.16;5039621;28;48034;-50
2022/02/16 09:50:09;;;;;;;;;2.00;0.50;;;;;13.89;67.12;100212.53;5040938;28;45237;-46
2022/02/16 09:52:34;;;;;;;;;0.75;0.75;;;;;13.94;66.61;100220.31;5041287;28;45342;-50
2022/02/16 09:55:00;;;;;;;;;2.00;1.00;;;;;13.97;66.79;100207.84;5039534;28;45568;-51
2022/02/16 09:57:27;;;;;;;;;1.25;1.25;;;;;13.99;66.69;100205.16;5041395;28;45955;-47
2022/02/16 09:59:53;;;;;;;;;4.00;2.50;;;;;14.03;67.63;100195.34;5040516;28;45251;-47
2022/02/16 10:02:18;;;;;;;;;1.00;1.00;;;;;14.08;67.31;100199.50;5041208;28;45310;-49
2022/02/16 10:04:58;;;;;;;;;0.75;0.75;;;;;14.13;67.35;100210.75;5040885;28;45264;-51
2022/02/16 10:07:24;;;;;;;;;2.00;1.00;;;;;14.19;67.45;100220.25;5039422;28;46988;-46
2022/02/16 10:09:51;;;;;;;;;2.50;0.00;;;;;14.16;66.99;100215.06;5040387;28;45337;-49
2022/02/16 10:12:17;;;;;;;;;1.25;1.25;;;;;14.21;66.86;100234.25;5040885;28;45370;-47
2022/02/16 10:14:43;;;;;;;;;1.00;1.00;;;;;14.29;67.61;100223.44;5039108;28;45491;-50
2022/02/16 10:17:29;;;;;;;;;1.00;1.00;;;;;14.35;67.04;100227.59;5040572;28;46062;-48
2022/02/16 10:20:03;;;;;;;;;1.00;1.00;;;;;14.35;66.55;100217.03;5040596;28;45263;-47
2022/02/16 10:22:42;;;;;;;;;1.00;1.00;;;;;14.37;67.27;100233.69;5040553;28;45271;-44
2022/02/16 10:25:10;;;;;;;;;2.00;2.00;;;;;14.44;66.82;100224.63;5040429;28;45354;-45
2022/02/16 10:27:36;;;;;;;;;0.00;0.00;;;;;14.47;66.41;100230.63;5040052;28;46176;-46
2022/02/16 10:30:11;;;;;;;;;0.00;0.00;;;;;14.50;67.24;100224.34;5040358;28;45358;-48
2022/02/16 10:32:36;;;;;;;;;0.00;0.00;;;;;14.54;66.86;100218.06;5040487;28;45280;-47
2022/02/16 10:35:01;;;;;;;;;1.00;1.00;;;;;14.59;67.05;100229.31;5040492;28;46458;-50
2022/02/16 10:37:38;;;;;;;;;0.00;0.00;;;;;14.60;67.02;100236.31;5040308;28;46034;-48
2022/02/16 10:40:11;;;;;;;;;1.00;1.00;;;;;14.61;66.68;100232.72;5040248;28;45260;-49
2022/02/16 10:42:54;;;;;;;;;2.00;0.00;;;;;14.65;66.80;100232.66;5040297;28;45268;-49
2022/02/16 10:45:23;;;;;;;;;0.00;0.00;;;;;14.65;66.74;100240.59;5040144;28;45268;-48
2022/02/16 10:48:03;;;;;;;;;0.00;0.00;;;;;14.67;66.49;100250.19;5040075;28;45358;-46
2022/02/16 10:50:39;;;;;;;;;1.00;1.00;;;;;14.69;67.33;100223.69;5040024;28;45357;-50
2022/02/16 10:53:07;;;;;;;;;0.00;0.00;;;;;14.71;66.91;100227.13;5040348;28;45247;-49
2022/02/16 10:55:48;;;;;;;;;0.00;0.00;;;;;14.73;66.44;100230.56;5040211;28;45400;-50
2022/02/16 10:58:19;;;;;;;;;1.00;1.00;;;;;14.74;66.95;100233.16;5038386;28;46427;-48
2022/02/16 11:00:47;;;;;;;;;1.00;1.00;;;;;14.78;66.63;100247.13;5038107;28;45296;-50
2022/02/16 11:03:42;;;;;;;;;0.00;0.00;;;;;14.76;66.83;100270.13;5040066;28;45337;-51
2022/02/16 11:06:11;;;;;;;;;3.00;1.00;;;;;14.76;67.13;100244.53;5038743;28;45424;-47
2022/02/16 11:08:37;;;;;;;;;1.75;1.50;;;;;14.80;66.41;100258.50;5040003;28;45350;-50
2022/02/16 11:11:04;;;;;;;;;1.00;0.67;;;;;14.75;67.24;100260.47;5039593;28;45339;-49
2022/02/16 11:13:32;;;;;;;;;1.00;1.00;;;;;14.77;66.98;100254.19;5040087;28;45382;-51
2022/02/16 11:16:01;;;;;;;;;1.00;1.00;;;;;14.78;67.02;100260.34;5039774;28;45227;-51
2022/02/16 11:18:40;;;;;;;;;0.00;0.00;;;;;14.77;66.83;100266.56;5039759;28;46388;-48
2022/02/16 11:21:11;;;;;;;;;2.25;2.00;;;;;14.75;67.21;100271.91;5038639;28;45221;-49